sensor_id;sensor_type;location;lat;lon;timestamp;temperature;humidity
33931;DHT22;20215;53.130;6.408;2022-11-11T00:01:33;15.60;98.90
33931;DHT22;20215;53.130;6.408;2022-11-11T00:03:58;15.60;98.70
33931;DHT22;20215;53.130;6.408;2022-11-11T00:06:24;15.60;98.60
33931;DHT22;20215;53.130;6.408;2022-11-11T00:08:49;15.60;98.70
33931;DHT22;20215;53.130;6.408;2022-11-11T00:11:16;15.60;98.70
33931;DHT22;20215;53.130;6.408;2022-11-11T00:13:42;15.60;98.60
33931;DHT22;20215;53.130;6.408;2022-11-11T00:16:17;15.60;98.70
33931;DHT22;20215;53.130;6.408;2022-11-11T00:18:44;15.60;98.70
33931;DHT22;20215;53.130;6.408;2022-11-11T00:21:28;15.60;98.80
33931;DHT22;20215;53.130;6.408;2022-11-11T00:24:03;15.60;98.70
33931;DHT22;20215;53.130;6.408;2022-11-11T00:26:48;15.60;98.80
33931;DHT22;20215;53.130;6.408;2022-11-11T00:29:13;15.50;98.80
33931;DHT22;20215;53.130;6.408;2022-11-11T00:31:39;15.60;98.80
33931;DHT22;20215;53.130;6.408;2022-11-11T00:34:24;15.60;98.90
33931;DHT22;20215;53.130;6.408;2022-11-11T00:36:50;15.50;98.90
33931;DHT22;20215;53.130;6.408;2022-11-11T00:39:17;15.60;98.90
33931;DHT22;20215;53.130;6.408;2022-11-11T00:41:43;15.60;98.60
33931;DHT22;20215;53.130;6.408;2022-11-11T00:44:08;15.60;98.60
33931;DHT22;20215;53.130;6.408;2022-11-11T00:46:34;15.50;98.90
33931;DHT22;20215;53.130;6.408;2022-11-11T00:49:18;15.60;98.80
33931;DHT22;20215;53.130;6.408;2022-11-11T00:52:02;15.60;98.70
33931;DHT22;20215;53.130;6.408;2022-11-11T00:54:28;15.60;98.80
33931;DHT22;20215;53.130;6.408;2022-11-11T00:56:53;15.50;98.50
33931;DHT22;20215;53.130;6.408;2022-11-11T00:59:19;15.60;98.30
33931;DHT22;20215;53.130;6.408;2022-11-11T01:01:44;15.50;98.60
33931;DHT22;20215;53.130;6.408;2022-11-11T01:04:10;15.50;98.40
33931;DHT22;20215;53.130;6.408;2022-11-11T01:06:36;15.50;98.50
33931;DHT22;20215;53.130;6.408;2022-11-11T01:09:05;15.50;98.70
33931;DHT22;20215;53.130;6.408;2022-11-11T01:11:32;15.60;98.80
33931;DHT22;20215;53.130;6.408;2022-11-11T01:13:59;15.60;98.70
33931;DHT22;20215;53.130;6.408;2022-11-11T01:16:25;15.60;98.80
33931;DHT22;20215;53.130;6.408;2022-11-11T01:18:52;15.60;98.50
33931;DHT22;20215;53.130;6.408;2022-11-11T01:21:20;15.50;98.80
33931;DHT22;20215;53.130;6.408;2022-11-11T01:23:47;15.60;98.60
33931;DHT22;20215;53.130;6.408;2022-11-11T01:28:48;15.50;98.90
33931;DHT22;20215;53.130;6.408;2022-11-11T01:31:17;15.60;98.80
33931;DHT22;20215;53.130;6.408;2022-11-11T01:33:43;15.50;98.70
33931;DHT22;20215;53.130;6.408;2022-11-11T01:36:12;15.60;98.60
33931;DHT22;20215;53.130;6.408;2022-11-11T01:38:39;15.60;98.60
33931;DHT22;20215;53.130;6.408;2022-11-11T01:41:07;15.60;98.70
33931;DHT22;20215;53.130;6.408;2022-11-11T01:43:52;15.50;98.80
33931;DHT22;20215;53.130;6.408;2022-11-11T01:46:51;15.50;98.70
33931;DHT22;20215;53.130;6.408;2022-11-11T01:49:29;15.60;98.50
33931;DHT22;20215;53.130;6.408;2022-11-11T01:52:21;15.50;98.90
33931;DHT22;20215;53.130;6.408;2022-11-11T01:59:58;15.50;99.00
33931;DHT22;20215;53.130;6.408;2022-11-11T02:02:56;15.50;99.10
33931;DHT22;20215;53.130;6.408;2022-11-11T02:05:23;15.50;99.00
33931;DHT22;20215;53.130;6.408;2022-11-11T02:08:28;15.50;99.00
33931;DHT22;20215;53.130;6.408;2022-11-11T02:11:10;15.50;99.00
33931;DHT22;20215;53.130;6.408;2022-11-11T02:13:38;15.50;98.80
33931;DHT22;20215;53.130;6.408;2022-11-11T02:16:25;15.50;99.10
33931;DHT22;20215;53.130;6.408;2022-11-11T02:18:51;15.50;99.00
33931;DHT22;20215;53.130;6.408;2022-11-11T02:21:24;15.50;98.90
33931;DHT22;20215;53.130;6.408;2022-11-11T02:24:03;15.50;98.90
33931;DHT22;20215;53.130;6.408;2022-11-11T02:26:32;15.50;98.90
33931;DHT22;20215;53.130;6.408;2022-11-11T02:29:00;15.50;98.80
33931;DHT22;20215;53.130;6.408;2022-11-11T02:31:28;15.50;98.90
33931;DHT22;20215;53.130;6.408;2022-11-11T02:33:54;15.50;98.90
33931;DHT22;20215;53.130;6.408;2022-11-11T02:36:20;15.60;99.00
33931;DHT22;20215;53.130;6.408;2022-11-11T02:38:46;15.50;98.90
33931;DHT22;20215;53.130;6.408;2022-11-11T02:41:12;15.60;98.90
33931;DHT22;20215;53.130;6.408;2022-11-11T02:43:56;15.50;98.80
33931;DHT22;20215;53.130;6.408;2022-11-11T02:46:21;15.50;99.10
33931;DHT22;20215;53.130;6.408;2022-11-11T02:48:47;15.50;98.90
33931;DHT22;20215;53.130;6.408;2022-11-11T02:51:13;15.50;99.00
33931;DHT22;20215;53.130;6.408;2022-11-11T02:53:38;15.50;99.00
33931;DHT22;20215;53.130;6.408;2022-11-11T02:56:04;15.50;98.90
33931;DHT22;20215;53.130;6.408;2022-11-11T02:58:30;15.50;99.00
33931;DHT22;20215;53.130;6.408;2022-11-11T03:00:56;15.50;98.70
33931;DHT22;20215;53.130;6.408;2022-11-11T03:03:21;15.50;98.80
33931;DHT22;20215;53.130;6.408;2022-11-11T03:05:47;15.50;98.70
33931;DHT22;20215;53.130;6.408;2022-11-11T03:08:12;15.50;98.90
33931;DHT22;20215;53.130;6.408;2022-11-11T03:10:38;15.50;98.80
33931;DHT22;20215;53.130;6.408;2022-11-11T03:13:03;15.50;98.70
33931;DHT22;20215;53.130;6.408;2022-11-11T03:15:29;15.50;98.80
33931;DHT22;20215;53.130;6.408;2022-11-11T03:17:54;15.50;98.90
33931;DHT22;20215;53.130;6.408;2022-11-11T03:20:20;15.50;98.60
33931;DHT22;20215;53.130;6.408;2022-11-11T03:25:30;15.50;98.80
33931;DHT22;20215;53.130;6.408;2022-11-11T03:28:06;15.50;98.80
33931;DHT22;20215;53.130;6.408;2022-11-11T03:30:33;15.50;99.00
33931;DHT22;20215;53.130;6.408;2022-11-11T03:32:59;15.50;98.90
33931;DHT22;20215;53.130;6.408;2022-11-11T03:35:25;15.50;98.90
33931;DHT22;20215;53.130;6.408;2022-11-11T03:37:50;15.50;99.00
33931;DHT22;20215;53.130;6.408;2022-11-11T03:40:34;15.50;98.90
33931;DHT22;20215;53.130;6.408;2022-11-11T03:43:00;15.50;98.90
33931;DHT22;20215;53.130;6.408;2022-11-11T03:45:25;15.50;98.90
33931;DHT22;20215;53.130;6.408;2022-11-11T03:47:51;15.50;98.80
33931;DHT22;20215;53.130;6.408;2022-11-11T03:50:19;15.50;98.70
33931;DHT22;20215;53.130;6.408;2022-11-11T03:52:45;15.50;98.80
33931;DHT22;20215;53.130;6.408;2022-11-11T03:55:10;15.50;98.80
33931;DHT22;20215;53.130;6.408;2022-11-11T03:57:43;15.50;98.70
33931;DHT22;20215;53.130;6.408;2022-11-11T04:00:15;15.50;98.80
33931;DHT22;20215;53.130;6.408;2022-11-11T04:02:41;15.50;98.70
33931;DHT22;20215;53.130;6.408;2022-11-11T04:05:25;15.50;99.00
33931;DHT22;20215;53.130;6.408;2022-11-11T04:08:15;15.50;98.80
33931;DHT22;20215;53.130;6.408;2022-11-11T04:11:02;15.50;98.90
33931;DHT22;20215;53.130;6.408;2022-11-11T04:13:30;15.40;98.80
33931;DHT22;20215;53.130;6.408;2022-11-11T04:16:15;15.50;98.90
33931;DHT22;20215;53.130;6.408;2022-11-11T04:18:40;15.40;99.00
33931;DHT22;20215;53.130;6.408;2022-11-11T04:21:24;15.50;98.90
33931;DHT22;20215;53.130;6.408;2022-11-11T04:24:20;15.40;99.10
33931;DHT22;20215;53.130;6.408;2022-11-11T04:27:12;15.50;99.10
33931;DHT22;20215;53.130;6.408;2022-11-11T04:29:39;15.50;98.90
33931;DHT22;20215;53.130;6.408;2022-11-11T04:32:07;15.40;98.80
33931;DHT22;20215;53.130;6.408;2022-11-11T04:34:57;15.40;99.00
33931;DHT22;20215;53.130;6.408;2022-11-11T04:37:24;15.50;99.00
33931;DHT22;20215;53.130;6.408;2022-11-11T04:39:50;15.50;98.80
33931;DHT22;20215;53.130;6.408;2022-11-11T04:42:35;15.50;99.00
33931;DHT22;20215;53.130;6.408;2022-11-11T04:45:01;15.40;99.10
33931;DHT22;20215;53.130;6.408;2022-11-11T04:50:32;15.40;98.80
33931;DHT22;20215;53.130;6.408;2022-11-11T04:52:58;15.40;98.80
33931;DHT22;20215;53.130;6.408;2022-11-11T04:55:24;15.40;98.80
33931;DHT22;20215;53.130;6.408;2022-11-11T04:58:09;15.40;98.90
33931;DHT22;20215;53.130;6.408;2022-11-11T05:00:35;15.40;98.90
33931;DHT22;20215;53.130;6.408;2022-11-11T05:03:01;15.40;98.70
33931;DHT22;20215;53.130;6.408;2022-11-11T05:05:52;15.40;98.90
33931;DHT22;20215;53.130;6.408;2022-11-11T05:08:47;15.40;98.90
33931;DHT22;20215;53.130;6.408;2022-11-11T05:11:28;15.40;98.90
33931;DHT22;20215;53.130;6.408;2022-11-11T05:13:55;15.40;99.00
33931;DHT22;20215;53.130;6.408;2022-11-11T05:16:42;15.40;98.80
33931;DHT22;20215;53.130;6.408;2022-11-11T05:19:27;15.40;98.90
33931;DHT22;20215;53.130;6.408;2022-11-11T05:22:20;15.40;98.90
33931;DHT22;20215;53.130;6.408;2022-11-11T05:24:47;15.40;98.80
33931;DHT22;20215;53.130;6.408;2022-11-11T05:27:31;15.40;99.00
33931;DHT22;20215;53.130;6.408;2022-11-11T05:29:57;15.40;98.80
33931;DHT22;20215;53.130;6.408;2022-11-11T05:32:22;15.40;98.90
33931;DHT22;20215;53.130;6.408;2022-11-11T05:34:48;15.40;99.00
33931;DHT22;20215;53.130;6.408;2022-11-11T05:37:14;15.40;99.00
33931;DHT22;20215;53.130;6.408;2022-11-11T05:39:41;15.40;98.90
33931;DHT22;20215;53.130;6.408;2022-11-11T05:42:07;15.40;98.80
33931;DHT22;20215;53.130;6.408;2022-11-11T05:44:33;15.40;98.90
33931;DHT22;20215;53.130;6.408;2022-11-11T05:46:58;15.40;98.70
33931;DHT22;20215;53.130;6.408;2022-11-11T05:49:24;15.40;98.70
33931;DHT22;20215;53.130;6.408;2022-11-11T05:51:50;15.40;98.80
33931;DHT22;20215;53.130;6.408;2022-11-11T05:54:16;15.40;98.80
33931;DHT22;20215;53.130;6.408;2022-11-11T05:56:42;15.40;97.60
33931;DHT22;20215;53.130;6.408;2022-11-11T05:59:08;15.40;98.60
33931;DHT22;20215;53.130;6.408;2022-11-11T06:01:35;15.40;98.50
33931;DHT22;20215;53.130;6.408;2022-11-11T06:04:01;15.40;98.60
33931;DHT22;20215;53.130;6.408;2022-11-11T06:06:27;15.40;98.60
33931;DHT22;20215;53.130;6.408;2022-11-11T06:08:52;15.40;98.70
33931;DHT22;20215;53.130;6.408;2022-11-11T06:11:18;15.40;98.40
33931;DHT22;20215;53.130;6.408;2022-11-11T06:13:44;15.40;98.50
33931;DHT22;20215;53.130;6.408;2022-11-11T06:16:10;15.40;98.80
33931;DHT22;20215;53.130;6.408;2022-11-11T06:18:35;15.40;98.60
33931;DHT22;20215;53.130;6.408;2022-11-11T06:21:01;15.40;98.80
33931;DHT22;20215;53.130;6.408;2022-11-11T06:23:27;15.40;98.50
33931;DHT22;20215;53.130;6.408;2022-11-11T06:25:54;15.50;98.70
33931;DHT22;20215;53.130;6.408;2022-11-11T06:28:48;15.40;98.60
33931;DHT22;20215;53.130;6.408;2022-11-11T06:31:20;15.40;98.80
33931;DHT22;20215;53.130;6.408;2022-11-11T06:33:46;15.40;98.40
33931;DHT22;20215;53.130;6.408;2022-11-11T06:36:16;15.30;98.70
33931;DHT22;20215;53.130;6.408;2022-11-11T06:38:43;15.40;98.70
33931;DHT22;20215;53.130;6.408;2022-11-11T06:41:09;15.40;98.80
33931;DHT22;20215;53.130;6.408;2022-11-11T06:43:39;15.30;98.80
33931;DHT22;20215;53.130;6.408;2022-11-11T06:46:05;15.40;98.70
33931;DHT22;20215;53.130;6.408;2022-11-11T06:48:30;15.40;98.60
33931;DHT22;20215;53.130;6.408;2022-11-11T06:51:04;15.40;98.50
33931;DHT22;20215;53.130;6.408;2022-11-11T06:53:30;15.40;98.50
33931;DHT22;20215;53.130;6.408;2022-11-11T06:55:56;15.40;98.70
33931;DHT22;20215;53.130;6.408;2022-11-11T06:58:23;15.30;98.50
33931;DHT22;20215;53.130;6.408;2022-11-11T07:00:49;15.40;98.50
33931;DHT22;20215;53.130;6.408;2022-11-11T07:03:17;15.40;98.60
33931;DHT22;20215;53.130;6.408;2022-11-11T07:05:43;15.40;98.50
33931;DHT22;20215;53.130;6.408;2022-11-11T07:08:11;15.40;98.70
33931;DHT22;20215;53.130;6.408;2022-11-11T07:10:39;15.40;98.60
33931;DHT22;20215;53.130;6.408;2022-11-11T07:13:06;15.30;98.70
33931;DHT22;20215;53.130;6.408;2022-11-11T07:15:32;15.30;98.50
33931;DHT22;20215;53.130;6.408;2022-11-11T07:17:57;15.40;98.60
33931;DHT22;20215;53.130;6.408;2022-11-11T07:20:23;15.40;98.70
33931;DHT22;20215;53.130;6.408;2022-11-11T07:22:48;15.40;98.80
33931;DHT22;20215;53.130;6.408;2022-11-11T07:25:14;15.30;98.70
33931;DHT22;20215;53.130;6.408;2022-11-11T07:27:41;15.30;98.40
33931;DHT22;20215;53.130;6.408;2022-11-11T07:30:08;15.40;98.80
33931;DHT22;20215;53.130;6.408;2022-11-11T07:32:34;15.30;98.40
33931;DHT22;20215;53.130;6.408;2022-11-11T07:35:00;15.40;98.50
33931;DHT22;20215;53.130;6.408;2022-11-11T07:37:26;15.40;98.50
33931;DHT22;20215;53.130;6.408;2022-11-11T07:39:52;15.30;98.50
33931;DHT22;20215;53.130;6.408;2022-11-11T07:42:19;15.40;98.60
33931;DHT22;20215;53.130;6.408;2022-11-11T07:44:44;15.40;98.50
33931;DHT22;20215;53.130;6.408;2022-11-11T07:47:10;15.40;98.50
33931;DHT22;20215;53.130;6.408;2022-11-11T07:49:36;15.40;98.60
33931;DHT22;20215;53.130;6.408;2022-11-11T07:52:01;15.40;98.60
33931;DHT22;20215;53.130;6.408;2022-11-11T07:54:27;15.40;98.60
33931;DHT22;20215;53.130;6.408;2022-11-11T07:56:52;15.40;98.50
33931;DHT22;20215;53.130;6.408;2022-11-11T07:59:18;15.40;98.60
33931;DHT22;20215;53.130;6.408;2022-11-11T08:01:44;15.40;98.80
33931;DHT22;20215;53.130;6.408;2022-11-11T08:04:09;15.40;98.60
33931;DHT22;20215;53.130;6.408;2022-11-11T08:06:35;15.40;98.70
33931;DHT22;20215;53.130;6.408;2022-11-11T08:09:01;15.40;98.60
33931;DHT22;20215;53.130;6.408;2022-11-11T08:11:26;15.40;98.60
33931;DHT22;20215;53.130;6.408;2022-11-11T08:14:10;15.30;98.30
33931;DHT22;20215;53.130;6.408;2022-11-11T08:16:36;15.40;98.60
33931;DHT22;20215;53.130;6.408;2022-11-11T08:19:02;15.40;98.50
33931;DHT22;20215;53.130;6.408;2022-11-11T08:21:27;15.40;98.50
33931;DHT22;20215;53.130;6.408;2022-11-11T08:23:53;15.40;98.50
33931;DHT22;20215;53.130;6.408;2022-11-11T08:26:20;15.30;98.50
33931;DHT22;20215;53.130;6.408;2022-11-11T08:28:46;15.40;98.60
33931;DHT22;20215;53.130;6.408;2022-11-11T08:31:12;15.40;98.60
33931;DHT22;20215;53.130;6.408;2022-11-11T08:33:38;15.40;98.40
33931;DHT22;20215;53.130;6.408;2022-11-11T08:36:04;15.40;98.50
33931;DHT22;20215;53.130;6.408;2022-11-11T08:38:30;15.30;98.70
33931;DHT22;20215;53.130;6.408;2022-11-11T08:41:03;15.40;98.60
33931;DHT22;20215;53.130;6.408;2022-11-11T08:43:29;15.40;98.60
33931;DHT22;20215;53.130;6.408;2022-11-11T08:45:59;15.40;98.50
33931;DHT22;20215;53.130;6.408;2022-11-11T08:48:25;15.40;98.40
33931;DHT22;20215;53.130;6.408;2022-11-11T08:50:52;15.40;98.50
33931;DHT22;20215;53.130;6.408;2022-11-11T08:53:18;15.40;98.50
33931;DHT22;20215;53.130;6.408;2022-11-11T08:55:44;15.40;98.30
33931;DHT22;20215;53.130;6.408;2022-11-11T08:58:11;15.40;98.50
33931;DHT22;20215;53.130;6.408;2022-11-11T09:00:37;15.40;98.50
33931;DHT22;20215;53.130;6.408;2022-11-11T09:03:04;15.40;98.40
33931;DHT22;20215;53.130;6.408;2022-11-11T09:05:30;15.40;98.60
33931;DHT22;20215;53.130;6.408;2022-11-11T09:08:00;15.40;98.50
33931;DHT22;20215;53.130;6.408;2022-11-11T09:10:26;15.40;98.40
33931;DHT22;20215;53.130;6.408;2022-11-11T09:12:58;15.40;98.20
33931;DHT22;20215;53.130;6.408;2022-11-11T09:15:24;15.40;98.30
33931;DHT22;20215;53.130;6.408;2022-11-11T09:17:50;15.40;98.40
33931;DHT22;20215;53.130;6.408;2022-11-11T09:20:16;15.40;98.50
33931;DHT22;20215;53.130;6.408;2022-11-11T09:22:47;15.40;98.40
33931;DHT22;20215;53.130;6.408;2022-11-11T09:25:14;15.40;98.40
33931;DHT22;20215;53.130;6.408;2022-11-11T09:27:40;15.40;98.40
33931;DHT22;20215;53.130;6.408;2022-11-11T09:30:07;15.40;98.40
33931;DHT22;20215;53.130;6.408;2022-11-11T09:32:33;15.50;98.50
33931;DHT22;20215;53.130;6.408;2022-11-11T09:34:59;15.40;98.30
33931;DHT22;20215;53.130;6.408;2022-11-11T09:37:26;15.40;98.50
33931;DHT22;20215;53.130;6.408;2022-11-11T09:39:51;15.40;98.30
33931;DHT22;20215;53.130;6.408;2022-11-11T09:42:37;15.40;98.30
33931;DHT22;20215;53.130;6.408;2022-11-11T09:45:37;15.40;98.40
33931;DHT22;20215;53.130;6.408;2022-11-11T09:48:32;15.50;98.40
33931;DHT22;20215;53.130;6.408;2022-11-11T09:51:01;15.40;98.10
33931;DHT22;20215;53.130;6.408;2022-11-11T09:53:36;15.40;98.40
33931;DHT22;20215;53.130;6.408;2022-11-11T09:56:11;15.40;98.50
33931;DHT22;20215;53.130;6.408;2022-11-11T09:59:08;15.50;98.50
33931;DHT22;20215;53.130;6.408;2022-11-11T10:01:41;15.40;98.30
33931;DHT22;20215;53.130;6.408;2022-11-11T10:04:19;15.40;98.50
33931;DHT22;20215;53.130;6.408;2022-11-11T10:06:49;15.40;98.50
33931;DHT22;20215;53.130;6.408;2022-11-11T10:09:23;15.40;98.40
33931;DHT22;20215;53.130;6.408;2022-11-11T10:12:11;15.40;98.60
33931;DHT22;20215;53.130;6.408;2022-11-11T10:14:41;15.40;98.30
33931;DHT22;20215;53.130;6.408;2022-11-11T10:20:28;15.40;98.40
33931;DHT22;20215;53.130;6.408;2022-11-11T10:23:02;15.40;98.50
33931;DHT22;20215;53.130;6.408;2022-11-11T10:25:29;15.40;98.50
33931;DHT22;20215;53.130;6.408;2022-11-11T10:27:58;15.40;98.50
33931;DHT22;20215;53.130;6.408;2022-11-11T10:30:31;15.40;98.30
33931;DHT22;20215;53.130;6.408;2022-11-11T10:33:09;15.40;98.30
33931;DHT22;20215;53.130;6.408;2022-11-11T10:35:38;15.40;98.30
33931;DHT22;20215;53.130;6.408;2022-11-11T10:40:52;15.40;98.50
33931;DHT22;20215;53.130;6.408;2022-11-11T10:43:22;15.40;98.40
33931;DHT22;20215;53.130;6.408;2022-11-11T10:46:12;15.50;98.50
33931;DHT22;20215;53.130;6.408;2022-11-11T10:48:56;15.50;98.20
33931;DHT22;20215;53.130;6.408;2022-11-11T10:51:27;15.40;98.30
33931;DHT22;20215;53.130;6.408;2022-11-11T10:56:42;15.50;98.30
33931;DHT22;20215;53.130;6.408;2022-11-11T10:59:25;15.40;98.30
33931;DHT22;20215;53.130;6.408;2022-11-11T11:01:57;15.50;98.30
33931;DHT22;20215;53.130;6.408;2022-11-11T11:06:51;15.40;98.40
33931;DHT22;20215;53.130;6.408;2022-11-11T11:12:15;15.50;98.40
33931;DHT22;20215;53.130;6.408;2022-11-11T11:14:46;15.50;98.40
33931;DHT22;20215;53.130;6.408;2022-11-11T11:17:15;15.50;98.40
33931;DHT22;20215;53.130;6.408;2022-11-11T11:19:44;15.50;98.40
33931;DHT22;20215;53.130;6.408;2022-11-11T11:22:51;15.50;98.30
33931;DHT22;20215;53.130;6.408;2022-11-11T11:25:19;15.50;98.20
33931;DHT22;20215;53.130;6.408;2022-11-11T11:27:45;15.50;98.30
33931;DHT22;20215;53.130;6.408;2022-11-11T11:32:40;15.50;98.30
33931;DHT22;20215;53.130;6.408;2022-11-11T11:35:11;15.50;98.30
33931;DHT22;20215;53.130;6.408;2022-11-11T11:37:53;15.50;98.20
33931;DHT22;20215;53.130;6.408;2022-11-11T11:40:18;15.50;98.10
33931;DHT22;20215;53.130;6.408;2022-11-11T11:42:44;15.50;98.20
33931;DHT22;20215;53.130;6.408;2022-11-11T11:50:55;15.50;98.10
33931;DHT22;20215;53.130;6.408;2022-11-11T11:56:41;15.60;98.10
33931;DHT22;20215;53.130;6.408;2022-11-11T12:07:07;15.50;98.20
33931;DHT22;20215;53.130;6.408;2022-11-11T12:12:28;15.50;98.20
33931;DHT22;20215;53.130;6.408;2022-11-11T12:15:05;15.50;98.10
33931;DHT22;20215;53.130;6.408;2022-11-11T12:17:55;15.50;98.20
33931;DHT22;20215;53.130;6.408;2022-11-11T12:20:26;15.50;98.10
33931;DHT22;20215;53.130;6.408;2022-11-11T12:30:23;15.50;98.00
33931;DHT22;20215;53.130;6.408;2022-11-11T12:33:13;15.50;98.20
33931;DHT22;20215;53.130;6.408;2022-11-11T12:38:34;15.50;98.20
33931;DHT22;20215;53.130;6.408;2022-11-11T12:41:15;15.60;97.90
33931;DHT22;20215;53.130;6.408;2022-11-11T12:55:29;15.50;98.50
33931;DHT22;20215;53.130;6.408;2022-11-11T12:58:27;15.50;98.30
33931;DHT22;20215;53.130;6.408;2022-11-11T13:04:02;15.50;98.30
33931;DHT22;20215;53.130;6.408;2022-11-11T13:09:22;15.50;98.30
33931;DHT22;20215;53.130;6.408;2022-11-11T13:17:30;15.50;98.20
33931;DHT22;20215;53.130;6.408;2022-11-11T13:20:01;15.50;98.30
33931;DHT22;20215;53.130;6.408;2022-11-11T13:22:28;15.50;98.30
33931;DHT22;20215;53.130;6.408;2022-11-11T13:24:56;15.50;98.30
33931;DHT22;20215;53.130;6.408;2022-11-11T13:30:09;15.50;98.60
33931;DHT22;20215;53.130;6.408;2022-11-11T13:33:04;15.50;98.20
33931;DHT22;20215;53.130;6.408;2022-11-11T13:38:28;15.50;98.20
33931;DHT22;20215;53.130;6.408;2022-11-11T13:41:13;15.50;98.40
33931;DHT22;20215;53.130;6.408;2022-11-11T13:43:49;15.50;98.30
33931;DHT22;20215;53.130;6.408;2022-11-11T13:46:32;15.50;98.30
33931;DHT22;20215;53.130;6.408;2022-11-11T13:49:00;15.50;98.30
33931;DHT22;20215;53.130;6.408;2022-11-11T13:51:44;15.60;98.20
33931;DHT22;20215;53.130;6.408;2022-11-11T13:54:36;15.50;98.40
33931;DHT22;20215;53.130;6.408;2022-11-11T13:59:42;15.60;98.20
33931;DHT22;20215;53.130;6.408;2022-11-11T14:02:29;15.60;98.30
33931;DHT22;20215;53.130;6.408;2022-11-11T14:07:53;15.60;98.20
33931;DHT22;20215;53.130;6.408;2022-11-11T14:12:53;15.60;98.30
33931;DHT22;20215;53.130;6.408;2022-11-11T14:15:47;15.60;98.30
33931;DHT22;20215;53.130;6.408;2022-11-11T14:20:50;15.60;98.30
33931;DHT22;20215;53.130;6.408;2022-11-11T14:28:33;15.60;98.30
33931;DHT22;20215;53.130;6.408;2022-11-11T14:33:57;15.60;98.10
33931;DHT22;20215;53.130;6.408;2022-11-11T14:41:56;15.60;98.20
33931;DHT22;20215;53.130;6.408;2022-11-11T14:49:55;15.60;98.20
33931;DHT22;20215;53.130;6.408;2022-11-11T14:52:39;15.60;98.20
33931;DHT22;20215;53.130;6.408;2022-11-11T14:55:21;15.60;98.40
33931;DHT22;20215;53.130;6.408;2022-11-11T14:57:57;15.60;98.40
33931;DHT22;20215;53.130;6.408;2022-11-11T15:00:30;15.50;98.30
33931;DHT22;20215;53.130;6.408;2022-11-11T15:03:08;15.60;98.40
33931;DHT22;20215;53.130;6.408;2022-11-11T15:05:52;15.60;98.30
33931;DHT22;20215;53.130;6.408;2022-11-11T15:08:25;15.60;98.10
33931;DHT22;20215;53.130;6.408;2022-11-11T15:16:38;15.60;98.00
33931;DHT22;20215;53.130;6.408;2022-11-11T15:24:49;15.60;97.80
33931;DHT22;20215;53.130;6.408;2022-11-11T15:30:14;15.60;97.50
33931;DHT22;20215;53.130;6.408;2022-11-11T15:33:17;15.60;97.80
33931;DHT22;20215;53.130;6.408;2022-11-11T15:35:57;15.60;97.70
33931;DHT22;20215;53.130;6.408;2022-11-11T15:38:25;15.60;97.70
33931;DHT22;20215;53.130;6.408;2022-11-11T15:40:58;15.60;97.70
33931;DHT22;20215;53.130;6.408;2022-11-11T15:43:26;15.60;97.60
33931;DHT22;20215;53.130;6.408;2022-11-11T15:45:55;15.60;97.70
33931;DHT22;20215;53.130;6.408;2022-11-11T15:48:28;15.70;97.60
33931;DHT22;20215;53.130;6.408;2022-11-11T15:50:54;15.70;97.60
33931;DHT22;20215;53.130;6.408;2022-11-11T15:53:26;15.70;97.40
33931;DHT22;20215;53.130;6.408;2022-11-11T15:55:55;15.70;97.50
33931;DHT22;20215;53.130;6.408;2022-11-11T15:58:27;15.70;97.40
33931;DHT22;20215;53.130;6.408;2022-11-11T16:00:54;15.70;97.30
33931;DHT22;20215;53.130;6.408;2022-11-11T16:03:39;15.70;97.30
33931;DHT22;20215;53.130;6.408;2022-11-11T16:06:10;15.70;97.40
33931;DHT22;20215;53.130;6.408;2022-11-11T16:08:40;15.70;97.20
33931;DHT22;20215;53.130;6.408;2022-11-11T16:11:08;15.70;97.20
33931;DHT22;20215;53.130;6.408;2022-11-11T16:13:41;15.70;97.30
33931;DHT22;20215;53.130;6.408;2022-11-11T16:16:17;15.70;97.30
33931;DHT22;20215;53.130;6.408;2022-11-11T16:18:54;15.70;97.30
33931;DHT22;20215;53.130;6.408;2022-11-11T16:21:34;15.70;97.10
33931;DHT22;20215;53.130;6.408;2022-11-11T16:24:01;15.70;97.00
33931;DHT22;20215;53.130;6.408;2022-11-11T16:26:27;15.70;97.00
33931;DHT22;20215;53.130;6.408;2022-11-11T16:28:57;15.70;97.30
33931;DHT22;20215;53.130;6.408;2022-11-11T16:31:36;15.70;97.00
33931;DHT22;20215;53.130;6.408;2022-11-11T16:37:00;15.70;96.60
33931;DHT22;20215;53.130;6.408;2022-11-11T16:39:27;15.70;96.90
33931;DHT22;20215;53.130;6.408;2022-11-11T16:41:54;15.80;96.90
33931;DHT22;20215;53.130;6.408;2022-11-11T16:47:00;15.70;96.90
33931;DHT22;20215;53.130;6.408;2022-11-11T16:49:34;15.70;96.80
33931;DHT22;20215;53.130;6.408;2022-11-11T16:52:14;15.70;96.90
33931;DHT22;20215;53.130;6.408;2022-11-11T16:54:49;15.70;96.70
33931;DHT22;20215;53.130;6.408;2022-11-11T16:57:18;15.70;96.70
33931;DHT22;20215;53.130;6.408;2022-11-11T16:59:47;15.70;96.80
33931;DHT22;20215;53.130;6.408;2022-11-11T17:02:18;15.70;96.70
33931;DHT22;20215;53.130;6.408;2022-11-11T17:04:50;15.70;96.70
33931;DHT22;20215;53.130;6.408;2022-11-11T17:07:37;15.70;96.70
33931;DHT22;20215;53.130;6.408;2022-11-11T17:10:16;15.70;96.50
33931;DHT22;20215;53.130;6.408;2022-11-11T17:12:42;15.70;96.50
33931;DHT22;20215;53.130;6.408;2022-11-11T17:15:10;15.70;96.60
33931;DHT22;20215;53.130;6.408;2022-11-11T17:17:37;15.70;96.60
33931;DHT22;20215;53.130;6.408;2022-11-11T17:20:19;15.70;96.60
33931;DHT22;20215;53.130;6.408;2022-11-11T17:22:50;15.70;96.50
33931;DHT22;20215;53.130;6.408;2022-11-11T17:25:16;15.70;96.60
33931;DHT22;20215;53.130;6.408;2022-11-11T17:27:42;15.70;96.60
33931;DHT22;20215;53.130;6.408;2022-11-11T17:30:10;15.70;96.50
33931;DHT22;20215;53.130;6.408;2022-11-11T17:32:36;15.70;96.40
33931;DHT22;20215;53.130;6.408;2022-11-11T17:35:01;15.70;96.50
33931;DHT22;20215;53.130;6.408;2022-11-11T17:37:27;15.70;96.60
33931;DHT22;20215;53.130;6.408;2022-11-11T17:39:52;15.70;96.50
33931;DHT22;20215;53.130;6.408;2022-11-11T17:42:18;15.70;96.60
33931;DHT22;20215;53.130;6.408;2022-11-11T17:44:43;15.70;96.60
33931;DHT22;20215;53.130;6.408;2022-11-11T17:47:09;15.70;96.50
33931;DHT22;20215;53.130;6.408;2022-11-11T17:49:35;15.70;96.50
33931;DHT22;20215;53.130;6.408;2022-11-11T17:52:00;15.70;96.40
33931;DHT22;20215;53.130;6.408;2022-11-11T17:54:26;15.70;96.40
33931;DHT22;20215;53.130;6.408;2022-11-11T17:56:53;15.70;96.40
33931;DHT22;20215;53.130;6.408;2022-11-11T17:59:19;15.70;96.50
33931;DHT22;20215;53.130;6.408;2022-11-11T18:01:44;15.80;96.40
33931;DHT22;20215;53.130;6.408;2022-11-11T18:04:10;15.70;96.40
33931;DHT22;20215;53.130;6.408;2022-11-11T18:06:35;15.70;96.30
33931;DHT22;20215;53.130;6.408;2022-11-11T18:09:01;15.70;96.20
33931;DHT22;20215;53.130;6.408;2022-11-11T18:11:27;15.70;96.20
33931;DHT22;20215;53.130;6.408;2022-11-11T18:13:52;15.70;96.30